Terminal Aerodrome Forecast
Issued by NWS Wilmington, OH

Current Version | Previous Version | Graphics & Text | Print | Product List | Glossary On
Versions: 1 2 3 4 5 6 7 8 9 10 11 12 13 14 15 16 17 18
000
FTUS41 KILN 202300
TAFDAY
TAF
KDAY 202333Z 2100/2124 VRB04KT P6SM SCT250
      TEMPO 2100/2101 BKN250
     FM210600 17005KT P6SM BKN200
     FM211500 21007KT P6SM SCT050 BKN150
     FM212000 23012KT P6SM SCT040 OVC100=

USA.gov is the U.S. government's official web portal to all federal, state and local government web resources and services.